createdAt,value
2023-06-21T00:00:42.026Z,18.19
2023-06-21T00:03:08.809Z,18.23
2023-06-21T00:05:35.518Z,18.38
2023-06-21T00:08:02.109Z,18.50
2023-06-21T00:10:30.591Z,18.64
2023-06-21T00:12:57.595Z,18.55
2023-06-21T00:15:24.315Z,18.44
2023-06-21T00:17:50.987Z,18.54
2023-06-21T00:20:18.492Z,18.46
2023-06-21T00:22:48.402Z,18.26
2023-06-21T00:25:16.139Z,18.20
2023-06-21T00:27:45.935Z,18.85
2023-06-21T00:30:12.675Z,18.47
2023-06-21T00:32:40.141Z,18.83
2023-06-21T00:35:07.566Z,18.82
2023-06-21T00:37:35.340Z,18.78
2023-06-21T00:40:02.071Z,18.76
2023-06-21T00:42:28.716Z,18.60
2023-06-21T00:44:55.291Z,18.45
2023-06-21T00:47:23.275Z,18.49
2023-06-21T00:49:50.015Z,18.09
2023-06-21T00:52:18.525Z,18.23
2023-06-21T00:54:46.530Z,18.20
2023-06-21T00:57:14.187Z,18.22
2023-06-21T00:59:40.876Z,18.35
2023-06-21T01:02:07.594Z,18.16
2023-06-21T01:04:35.794Z,18.36
2023-06-21T01:07:28.591Z,18.44
2023-06-21T01:10:15.308Z,18.38
2023-06-21T01:12:54.730Z,18.22
2023-06-21T01:15:26.005Z,18.12
2023-06-21T01:17:54.487Z,18.19
2023-06-21T01:20:31.995Z,18.72
2023-06-21T01:23:25.927Z,18.78
2023-06-21T01:25:55.369Z,18.41
2023-06-21T01:28:43.941Z,18.58
2023-06-21T01:31:16.955Z,18.52
2023-06-21T01:33:45.090Z,18.18
2023-06-21T01:36:11.969Z,18.46
2023-06-21T01:38:38.823Z,18.33
2023-06-21T01:41:07.389Z,18.30
2023-06-21T01:43:34.913Z,18.29
2023-06-21T01:46:03.865Z,18.53
2023-06-21T01:48:34.396Z,18.37
2023-06-21T01:51:03.488Z,18.11
2023-06-21T01:53:37.298Z,18.15
2023-06-21T01:56:09.806Z,18.16
2023-06-21T01:58:36.571Z,18.15
2023-06-21T02:01:04.754Z,18.33
2023-06-21T02:03:32.914Z,18.43
2023-06-21T02:06:04.608Z,18.18
2023-06-21T02:08:32.128Z,17.97
2023-06-21T02:10:58.690Z,17.99
2023-06-21T02:13:27.375Z,18.08
2023-06-21T02:15:55.021Z,17.93
2023-06-21T02:18:23.128Z,17.70
2023-06-21T02:20:50.595Z,18.03
2023-06-21T02:23:19.442Z,18.07
2023-06-21T02:25:46.020Z,18.13
2023-06-21T02:28:12.728Z,17.94
2023-06-21T02:30:39.325Z,17.98
2023-06-21T02:33:05.968Z,17.93
2023-06-21T02:35:32.654Z,17.78
2023-06-21T02:37:59.683Z,17.83
2023-06-21T02:40:26.322Z,17.77
2023-06-21T02:42:53.980Z,17.71
2023-06-21T02:45:20.616Z,17.70
2023-06-21T02:47:47.619Z,17.55
2023-06-21T02:50:16.446Z,17.45
2023-06-21T02:52:43.180Z,17.64
2023-06-21T02:55:10.046Z,17.79
2023-06-21T02:57:36.698Z,17.76
2023-06-21T03:00:24.883Z,17.59
2023-06-21T03:02:51.907Z,17.54
2023-06-21T03:05:18.749Z,17.40
2023-06-21T03:07:47.352Z,17.42
2023-06-21T03:10:17.190Z,17.37
2023-06-21T03:12:44.849Z,17.55
2023-06-21T03:15:15.648Z,17.57
2023-06-21T03:17:43.503Z,17.51
2023-06-21T03:20:14.979Z,17.41
2023-06-21T03:22:44.869Z,17.56
2023-06-21T03:25:13.306Z,17.57
2023-06-21T03:27:41.908Z,17.99
2023-06-21T03:30:13.869Z,18.14
2023-06-21T03:32:48.122Z,18.39
2023-06-21T03:35:18.043Z,18.42
2023-06-21T03:37:47.378Z,18.19
2023-06-21T03:40:15.478Z,18.35
2023-06-21T03:42:44.006Z,18.39
2023-06-21T03:45:11.768Z,18.15
2023-06-21T03:47:41.285Z,18.23
2023-06-21T03:50:09.368Z,18.33
2023-06-21T03:52:39.666Z,18.45
2023-06-21T03:55:08.195Z,18.45
2023-06-21T03:57:35.107Z,18.32
2023-06-21T04:00:01.953Z,18.61
2023-06-21T04:02:30.082Z,18.69
2023-06-21T04:04:56.747Z,18.68
2023-06-21T04:07:24.469Z,18.86
2023-06-21T04:09:51.454Z,19.16
2023-06-21T04:12:18.101Z,19.48
2023-06-21T04:14:44.689Z,19.75
2023-06-21T04:17:11.260Z,19.59
2023-06-21T04:19:37.867Z,19.65
2023-06-21T04:22:04.573Z,19.61
2023-06-21T04:24:32.677Z,19.51
2023-06-21T04:26:59.713Z,19.38
2023-06-21T04:29:29.298Z,19.53
2023-06-21T04:31:56.456Z,19.80
2023-06-21T04:34:23.381Z,20.17
2023-06-21T04:36:50.168Z,20.02
2023-06-21T04:39:18.053Z,20.22
2023-06-21T04:41:49.296Z,20.27
2023-06-21T04:44:18.170Z,20.76
2023-06-21T04:46:47.991Z,20.56
2023-06-21T04:49:18.629Z,20.74
2023-06-21T04:51:45.224Z,21.44
2023-06-21T04:54:12.994Z,22.53
2023-06-21T04:56:39.691Z,24.66
2023-06-21T04:59:08.888Z,25.16
2023-06-21T05:01:35.499Z,25.88
2023-06-21T05:04:02.040Z,26.05
2023-06-21T05:06:28.664Z,26.20
2023-06-21T05:08:55.204Z,26.99
2023-06-21T05:11:22.136Z,27.70
2023-06-21T05:13:48.576Z,27.08
2023-06-21T05:16:15.111Z,24.72
2023-06-21T05:18:41.747Z,22.70
2023-06-21T05:21:08.370Z,22.22
2023-06-21T05:23:35.476Z,21.98
2023-06-21T05:26:04.799Z,21.42
2023-06-21T05:28:32.020Z,20.82
2023-06-21T05:30:58.724Z,20.21
2023-06-21T05:33:25.351Z,20.35
2023-06-21T05:35:52.026Z,20.06
2023-06-21T05:38:18.598Z,19.86
2023-06-21T05:40:45.168Z,19.62
2023-06-21T05:43:11.730Z,19.64
2023-06-21T05:45:39.637Z,19.62
2023-06-21T05:48:06.693Z,19.64
2023-06-21T05:50:33.206Z,19.71
2023-06-21T05:53:00.367Z,19.33
2023-06-21T05:55:26.955Z,19.32
2023-06-21T05:57:53.509Z,19.34
2023-06-21T06:00:20.293Z,19.67
2023-06-21T06:02:46.924Z,19.97
2023-06-21T06:05:13.616Z,19.52
2023-06-21T06:07:40.203Z,20.03
2023-06-21T06:10:07.256Z,20.28
2023-06-21T06:12:34.816Z,20.43
2023-06-21T06:15:01.739Z,20.52
2023-06-21T06:17:28.830Z,20.59
2023-06-21T06:19:55.342Z,21.28
2023-06-21T06:22:21.907Z,21.23
2023-06-21T06:24:49.743Z,21.62
2023-06-21T06:27:16.391Z,21.99
2023-06-21T06:29:43.035Z,22.10
2023-06-21T06:32:09.598Z,22.08
2023-06-21T06:34:36.163Z,22.09
2023-06-21T06:37:13.770Z,22.18
2023-06-21T06:39:42.651Z,22.67
2023-06-21T06:42:11.189Z,23.10
2023-06-21T06:44:38.323Z,22.18
2023-06-21T06:47:06.497Z,22.37
2023-06-21T06:49:33.186Z,22.21
2023-06-21T06:51:59.797Z,22.30
2023-06-21T06:54:26.462Z,22.95
2023-06-21T06:56:53.098Z,23.16
2023-06-21T06:59:19.770Z,22.64
2023-06-21T07:01:46.388Z,23.15
2023-06-21T07:04:13.090Z,23.12
2023-06-21T07:06:39.760Z,22.30
2023-06-21T07:09:06.386Z,21.87
2023-06-21T07:11:33.160Z,22.72
2023-06-21T07:14:01.974Z,22.74
2023-06-21T07:16:35.794Z,21.57
2023-06-21T07:19:04.466Z,22.08
2023-06-21T07:21:31.032Z,22.65
2023-06-21T07:23:57.863Z,21.77
2023-06-21T07:26:25.603Z,21.90
2023-06-21T07:28:52.569Z,21.66
2023-06-21T07:31:19.218Z,21.71
2023-06-21T07:33:48.825Z,21.75
2023-06-21T07:36:15.986Z,21.95
2023-06-21T07:38:47.336Z,22.57
2023-06-21T07:41:14.368Z,22.90
2023-06-21T07:43:41.041Z,22.75
2023-06-21T07:46:15.263Z,23.40
2023-06-21T07:48:42.575Z,23.10
2023-06-21T07:51:10.444Z,23.38
2023-06-21T07:53:36.981Z,23.76
2023-06-21T07:56:03.654Z,23.29
2023-06-21T07:58:30.262Z,23.23
2023-06-21T08:00:56.815Z,23.59
2023-06-21T08:03:23.351Z,22.94
2023-06-21T08:05:49.935Z,23.64
2023-06-21T08:08:18.860Z,23.60
2023-06-21T08:10:45.539Z,23.48
2023-06-21T08:13:12.218Z,22.30
2023-06-21T08:15:38.964Z,22.84
2023-06-21T08:18:05.677Z,23.07
2023-06-21T08:20:34.613Z,22.84
2023-06-21T08:23:01.293Z,23.00
2023-06-21T08:25:30.919Z,23.12
2023-06-21T08:27:58.325Z,23.12
2023-06-21T08:30:25.359Z,22.97
2023-06-21T08:32:52.161Z,23.55
2023-06-21T08:35:18.926Z,23.54
2023-06-21T08:38:04.470Z,22.97
2023-06-21T08:40:39.179Z,22.93
2023-06-21T08:43:06.328Z,23.00
2023-06-21T08:45:33.348Z,23.16
2023-06-21T08:48:04.369Z,23.27
2023-06-21T08:50:31.276Z,23.01
2023-06-21T08:53:01.224Z,23.02
2023-06-21T08:55:30.710Z,23.25
2023-06-21T08:58:00.623Z,24.05
2023-06-21T09:00:34.981Z,24.02
2023-06-21T09:03:14.781Z,23.70
2023-06-21T09:06:04.266Z,23.22
2023-06-21T09:08:35.665Z,23.04
2023-06-21T09:11:03.551Z,23.96
2023-06-21T09:13:32.950Z,24.14
2023-06-21T09:16:00.233Z,24.28
2023-06-21T09:18:28.508Z,24.53
2023-06-21T09:20:55.365Z,24.34
2023-06-21T09:23:22.017Z,23.99
2023-06-21T09:25:49.460Z,24.32
2023-06-21T09:28:16.282Z,25.21
2023-06-21T09:30:43.430Z,25.35
2023-06-21T09:33:11.545Z,24.84
2023-06-21T09:35:40.260Z,24.18
2023-06-21T09:38:23.379Z,23.83
2023-06-21T09:40:50.157Z,24.44
2023-06-21T09:43:19.134Z,24.18
2023-06-21T09:46:04.440Z,25.00
2023-06-21T09:48:39.178Z,24.97
2023-06-21T09:51:09.820Z,25.36
2023-06-21T09:53:37.519Z,24.84
2023-06-21T09:56:04.756Z,24.82
2023-06-21T09:58:37.845Z,24.24
2023-06-21T10:01:08.308Z,23.87
2023-06-21T10:03:35.752Z,23.68
2023-06-21T10:06:04.363Z,23.54
2023-06-21T10:08:37.406Z,23.80
2023-06-21T10:11:04.505Z,24.04
2023-06-21T10:13:31.774Z,24.26
2023-06-21T10:16:00.755Z,24.33
2023-06-21T10:18:28.504Z,24.10
2023-06-21T10:20:59.269Z,24.57
2023-06-21T10:23:30.091Z,24.26
2023-06-21T10:26:00.859Z,24.62
2023-06-21T10:28:29.583Z,24.88
2023-06-21T10:30:59.459Z,25.29
2023-06-21T10:33:31.731Z,24.82
2023-06-21T10:36:02.186Z,24.83
2023-06-21T10:38:37.466Z,25.34
2023-06-21T10:41:05.757Z,25.48
2023-06-21T10:43:34.224Z,25.05
2023-06-21T10:46:01.809Z,24.97
2023-06-21T10:48:32.489Z,25.05
2023-06-21T10:51:03.120Z,25.05
2023-06-21T10:53:32.858Z,25.20
2023-06-21T10:56:02.389Z,25.45
2023-06-21T10:58:32.753Z,25.59
2023-06-21T11:00:59.871Z,25.67
2023-06-21T11:03:27.993Z,25.55
2023-06-21T11:06:15.024Z,25.09
2023-06-21T11:08:41.901Z,24.70
2023-06-21T11:11:08.504Z,24.50
2023-06-21T11:13:40.225Z,24.69
2023-06-21T11:16:14.768Z,24.70
2023-06-21T11:18:45.040Z,24.73
2023-06-21T11:21:11.688Z,24.99
2023-06-21T11:23:52.603Z,25.23
2023-06-21T11:26:19.664Z,25.50
2023-06-21T11:28:49.804Z,25.27
2023-06-21T11:31:24.549Z,25.30
2023-06-21T11:33:56.748Z,25.51
2023-06-21T11:36:26.602Z,25.67
2023-06-21T11:39:13.974Z,25.80
2023-06-21T11:41:46.713Z,25.84
2023-06-21T11:44:15.140Z,25.88
2023-06-21T11:46:43.814Z,26.20
2023-06-21T11:49:10.530Z,26.28
2023-06-21T11:51:50.089Z,26.12
2023-06-21T11:54:33.495Z,25.91
2023-06-21T11:57:00.565Z,26.09
2023-06-21T11:59:27.621Z,26.25
2023-06-21T12:01:54.927Z,25.63
2023-06-21T15:17:36.379Z,23.88
2023-06-21T15:20:03.392Z,23.97
2023-06-21T15:22:29.907Z,24.01
2023-06-21T15:24:57.257Z,24.00
2023-06-21T15:27:24.244Z,24.10
2023-06-21T15:29:51.172Z,24.52
2023-06-21T15:32:17.787Z,24.09
2023-06-21T15:34:46.012Z,24.05
2023-06-21T15:37:12.712Z,24.12
2023-06-21T15:39:39.348Z,24.30
2023-06-21T15:42:06.298Z,24.31
2023-06-21T15:44:33.015Z,23.95
2023-06-21T15:47:00.689Z,24.12
2023-06-21T15:49:27.503Z,24.02
2023-06-21T15:51:54.170Z,23.90
2023-06-21T15:54:21.185Z,23.64
2023-06-21T15:56:47.825Z,24.01
2023-06-21T15:59:14.631Z,23.73
2023-06-21T16:01:41.303Z,23.80
2023-06-21T16:04:08.182Z,23.54
2023-06-21T16:06:34.909Z,23.67
2023-06-21T16:09:01.553Z,23.82
2023-06-21T16:11:28.237Z,23.93
2023-06-21T16:13:54.939Z,23.57
2023-06-21T16:16:21.640Z,23.44
2023-06-21T16:18:50.324Z,23.58
2023-06-21T16:21:17.020Z,23.57
2023-06-21T16:23:43.742Z,23.48
2023-06-21T16:26:10.424Z,23.65
2023-06-21T16:28:37.221Z,23.57
2023-06-21T16:31:04.397Z,23.81
2023-06-21T16:33:31.261Z,23.77
2023-06-21T16:35:57.980Z,23.87
2023-06-21T16:38:24.687Z,23.79
2023-06-21T16:40:51.640Z,23.72
2023-06-21T16:43:18.174Z,23.77
2023-06-21T16:45:45.351Z,23.78
2023-06-21T16:48:12.344Z,23.82
2023-06-21T16:50:38.975Z,23.68
2023-06-21T16:53:06.004Z,23.60
2023-06-21T16:55:32.858Z,23.63
2023-06-21T16:58:00.205Z,23.54
2023-06-21T17:00:28.443Z,23.68
2023-06-21T17:02:55.803Z,23.47
2023-06-21T17:05:22.843Z,23.48
2023-06-21T17:07:50.586Z,23.52
2023-06-21T17:10:19.319Z,23.57
2023-06-21T17:12:46.380Z,23.49
2023-06-21T17:15:13.475Z,23.53
2023-06-21T17:17:41.539Z,23.67
2023-06-21T17:20:09.244Z,23.68
2023-06-21T17:22:36.053Z,23.40
2023-06-21T17:25:04.002Z,23.31
2023-06-21T17:27:31.045Z,23.30
2023-06-21T17:29:57.879Z,23.23
2023-06-21T17:32:24.816Z,23.28
2023-06-21T17:34:51.657Z,23.30
2023-06-21T17:37:18.406Z,23.38
2023-06-21T17:39:45.177Z,23.17
2023-06-21T17:42:12.004Z,23.12
2023-06-21T17:44:38.768Z,23.16
2023-06-21T17:47:05.748Z,23.34
2023-06-21T17:49:32.260Z,23.35
2023-06-21T17:51:58.982Z,23.13
2023-06-21T17:54:25.643Z,22.89
2023-06-21T17:56:52.268Z,22.83
2023-06-21T17:59:19.012Z,23.05
2023-06-21T18:01:46.427Z,22.91
2023-06-21T18:04:13.319Z,22.90
2023-06-21T18:06:40.032Z,22.86
2023-06-21T18:09:06.776Z,22.92
2023-06-21T18:11:33.421Z,22.78
2023-06-21T18:14:00.457Z,22.89
2023-06-21T18:16:29.872Z,22.93
2023-06-21T18:18:57.433Z,22.87
2023-06-21T18:21:24.189Z,22.85
2023-06-21T18:23:51.029Z,22.71
2023-06-21T18:26:17.998Z,22.73
2023-06-21T18:28:44.498Z,22.95
2023-06-21T18:31:11.171Z,22.75
2023-06-21T18:33:37.800Z,22.48
2023-06-21T18:36:04.583Z,22.41
2023-06-21T18:38:31.829Z,22.34
2023-06-21T18:40:58.501Z,22.15
2023-06-21T18:43:25.355Z,22.18
2023-06-21T18:45:51.999Z,22.17
2023-06-21T18:48:18.746Z,22.23
2023-06-21T18:50:45.386Z,22.12
2023-06-21T18:53:12.726Z,22.03
2023-06-21T18:55:39.317Z,22.12
2023-06-21T18:58:05.928Z,21.87
2023-06-21T19:00:32.586Z,21.86
2023-06-21T19:02:59.825Z,21.94
2023-06-21T19:05:26.705Z,21.66
2023-06-21T19:07:53.398Z,21.69
2023-06-21T19:10:20.113Z,21.72
2023-06-21T19:12:46.856Z,21.85
2023-06-21T19:15:15.484Z,21.72
2023-06-21T19:17:42.372Z,21.67
2023-06-21T19:20:09.510Z,21.60
2023-06-21T19:22:36.237Z,21.39
2023-06-21T19:25:03.567Z,21.42
2023-06-21T19:27:30.159Z,21.21
2023-06-21T19:29:57.424Z,21.22
2023-06-21T19:32:24.093Z,21.26
2023-06-21T19:34:50.896Z,21.00
2023-06-21T19:37:18.145Z,21.17
2023-06-21T19:39:45.648Z,21.15
2023-06-21T19:42:13.458Z,20.74
2023-06-21T19:44:41.894Z,20.93
2023-06-21T19:47:10.711Z,20.91
2023-06-21T19:49:38.305Z,20.88
2023-06-21T19:52:05.372Z,20.72
2023-06-21T19:54:31.863Z,20.58
2023-06-21T19:56:59.431Z,20.76
2023-06-21T19:59:26.095Z,20.54
2023-06-21T20:01:52.772Z,20.65
2023-06-21T20:04:19.497Z,20.52
2023-06-21T20:06:46.332Z,20.20
2023-06-21T20:09:13.024Z,20.37
2023-06-21T20:11:39.699Z,20.42
2023-06-21T20:14:06.436Z,20.59
2023-06-21T20:16:33.137Z,20.49
2023-06-21T20:18:59.787Z,20.24
2023-06-21T20:21:26.445Z,20.31
2023-06-21T20:23:53.186Z,20.38
2023-06-21T20:26:20.098Z,20.28
2023-06-21T20:28:46.803Z,20.36
2023-06-21T20:31:13.421Z,20.24
2023-06-21T20:33:40.450Z,19.98
2023-06-21T20:36:07.990Z,19.99
2023-06-21T20:38:36.878Z,19.82
2023-06-21T20:41:10.427Z,19.89
2023-06-21T20:43:43.399Z,19.81
2023-06-21T20:46:12.805Z,19.68
2023-06-21T20:48:39.596Z,19.54
2023-06-21T20:51:06.925Z,19.57
2023-06-21T20:53:33.764Z,19.47
2023-06-21T20:56:02.115Z,19.41
2023-06-21T20:58:30.275Z,19.38
2023-06-21T21:00:57.528Z,19.39
2023-06-21T21:03:24.434Z,19.30
2023-06-21T21:05:51.209Z,19.14
2023-06-21T21:08:17.962Z,19.16
2023-06-21T21:10:44.621Z,19.11
2023-06-21T21:13:11.290Z,19.07
2023-06-21T21:15:38.367Z,19.05
2023-06-21T21:18:04.986Z,19.10
2023-06-21T21:20:31.669Z,19.17
2023-06-21T21:22:58.248Z,19.14
2023-06-21T21:25:26.190Z,18.97
2023-06-21T21:27:52.788Z,18.96
2023-06-21T21:30:19.452Z,18.86
2023-06-21T21:32:46.188Z,18.77
2023-06-21T21:35:12.778Z,18.50
2023-06-21T21:37:39.855Z,18.72
2023-06-21T21:40:07.741Z,18.72
2023-06-21T21:42:34.354Z,18.68
2023-06-21T21:45:00.952Z,18.70
2023-06-21T21:47:27.556Z,18.62
2023-06-21T21:49:54.313Z,18.70
2023-06-21T21:52:21.040Z,18.67
2023-06-21T21:54:47.621Z,18.53
2023-06-21T21:57:14.210Z,18.54
2023-06-21T21:59:40.763Z,18.73
2023-06-21T22:02:08.388Z,18.71
2023-06-21T22:04:36.528Z,18.52
2023-06-21T22:07:03.185Z,18.72
2023-06-21T22:09:29.853Z,18.58
2023-06-21T22:11:57.928Z,18.62
2023-06-21T22:14:24.601Z,18.53
2023-06-21T22:16:53.060Z,18.30
2023-06-21T22:19:19.847Z,18.17
2023-06-21T22:21:53.222Z,18.28
2023-06-21T22:24:22.541Z,18.20
2023-06-21T22:26:51.607Z,18.28
2023-06-21T22:29:20.265Z,18.02
2023-06-21T22:31:50.490Z,18.15
2023-06-21T22:34:18.970Z,18.20
2023-06-21T22:36:46.032Z,18.11
2023-06-21T22:39:12.777Z,18.07
2023-06-21T22:41:41.393Z,18.17
2023-06-21T22:44:08.724Z,18.18
2023-06-21T22:46:35.778Z,17.99
2023-06-21T22:49:04.408Z,18.19
2023-06-21T22:51:34.265Z,18.16
2023-06-21T22:54:00.986Z,17.96
2023-06-21T22:56:27.836Z,17.89
2023-06-21T22:58:54.492Z,18.00
2023-06-21T23:01:21.686Z,18.07
2023-06-21T23:03:49.345Z,17.90
2023-06-21T23:06:16.344Z,18.06
2023-06-21T23:08:45.875Z,17.98
2023-06-21T23:11:13.369Z,18.06
2023-06-21T23:13:40.229Z,18.02
2023-06-21T23:16:10.302Z,17.94
2023-06-21T23:18:38.912Z,17.93
2023-06-21T23:21:07.324Z,17.83
2023-06-21T23:23:34.717Z,17.69
2023-06-21T23:26:01.409Z,17.62
2023-06-21T23:28:31.780Z,17.62
2023-06-21T23:31:14.236Z,17.27
2023-06-21T23:33:46.249Z,17.54
2023-06-21T23:36:14.107Z,17.40
2023-06-21T23:38:46.170Z,17.52
2023-06-21T23:41:13.206Z,17.44
2023-06-21T23:43:41.424Z,17.46
2023-06-21T23:46:08.236Z,17.40
2023-06-21T23:48:37.056Z,17.38
2023-06-21T23:51:05.692Z,17.14
2023-06-21T23:53:34.472Z,17.30
2023-06-21T23:56:01.418Z,17.24
2023-06-21T23:58:28.462Z,17.24
